Time,TemperatureF,DewpointF,PressureIn,WindDirection,WindDirectionDegrees,WindSpeedMPH,WindSpeedGustMPH,Humidity,HourlyPrecipIn,Conditions,Clouds,dailyrainin,SoftwareType,DateUTC
2014-04-18 00:23:00,75.0,70.0,30.11,ENE,60,4.0,16.0,84,0.00,,,0.01,,2014-04-18 04:23:00,
2014-04-18 00:43:00,75.0,70.0,30.11,East,86,2.0,12.0,85,0.00,,,0.01,,2014-04-18 04:43:00,
2014-04-18 00:54:00,75.0,70.0,30.11,ESE,109,5.0,9.0,85,0.00,,,0.01,,2014-04-18 04:54:00,
2014-04-18 01:22:00,75.0,71.0,30.09,ENE,72,4.0,9.0,86,0.00,,,0.01,,2014-04-18 05:22:00,
2014-04-18 01:52:00,75.0,71.0,30.08,ENE,76,3.0,7.0,88,0.00,,,0.01,,2014-04-18 05:52:00,
2014-04-18 02:22:00,75.0,71.0,30.08,East,80,2.0,9.0,87,0.00,,,0.01,,2014-04-18 06:22:00,
2014-04-18 02:42:00,75.0,71.0,30.07,East,97,3.0,8.0,87,0.00,,,0.01,,2014-04-18 06:42:00,
2014-04-18 02:52:00,75.0,71.0,30.06,ENE,71,3.0,8.0,88,0.00,,,0.01,,2014-04-18 06:52:00,
2014-04-18 03:22:00,74.0,71.0,30.06,SE,132,2.0,8.0,91,0.00,,,0.01,,2014-04-18 07:22:00,
2014-04-18 03:52:00,72.0,70.0,30.06,East,92,0.0,2.0,92,0.06,,,0.07,,2014-04-18 07:52:00,
2014-04-18 04:22:00,71.0,69.0,30.05,East,92,0.0,2.0,94,0.06,,,0.07,,2014-04-18 08:22:00,
2014-04-18 04:52:00,71.0,69.0,30.04,ENE,61,0.0,4.0,94,0.00,,,0.07,,2014-04-18 08:52:00,
2014-04-18 05:22:00,71.0,70.0,30.03,ENE,61,0.0,3.0,96,0.00,,,0.07,,2014-04-18 09:22:00,
2014-04-18 05:54:00,71.0,70.0,30.03,ENE,61,0.0,2.0,96,0.00,,,0.07,,2014-04-18 09:54:00,
2014-04-18 06:23:00,71.0,70.0,30.02,ENE,62,0.0,2.0,97,0.00,,,0.07,,2014-04-18 10:23:00,
2014-04-18 06:54:00,72.0,71.0,30.02,ESE,123,2.0,6.0,96,0.00,,,0.07,,2014-04-18 10:54:00,
2014-04-18 07:22:00,72.0,70.0,30.02,ESE,117,1.0,3.0,95,0.00,,,0.07,,2014-04-18 11:22:00,
2014-04-18 07:53:00,73.0,71.0,30.04,East,101,2.0,10.0,92,0.00,,,0.07,,2014-04-18 11:53:00,
2014-04-18 08:22:00,75.0,71.0,30.07,SSE,147,4.0,9.0,87,0.00,,,0.07,,2014-04-18 12:22:00,
2014-04-18 08:42:00,75.0,72.0,30.07,SE,125,1.0,9.0,89,0.01,,,0.08,,2014-04-18 12:42:00,